createdAt,value
2023-09-06T00:01:18.668Z,88.67
2023-09-06T00:03:51.068Z,87.69
2023-09-06T00:06:29.425Z,87.80
2023-09-06T00:09:01.726Z,87.22
2023-09-06T00:11:31.974Z,87.87
2023-09-06T00:14:04.407Z,87.77
2023-09-06T00:16:32.776Z,88.38
2023-09-06T00:19:04.675Z,90.93
2023-09-06T00:21:38.073Z,90.85
2023-09-06T00:24:07.323Z,90.64
2023-09-06T00:26:37.642Z,89.52
2023-09-06T00:29:07.683Z,89.22
2023-09-06T00:31:36.898Z,90.66
2023-09-06T00:34:08.400Z,90.90
2023-09-06T00:36:37.320Z,91.09
2023-09-06T00:39:07.011Z,90.54
2023-09-06T00:41:38.010Z,90.60
2023-09-06T00:44:07.132Z,91.90
2023-09-06T00:46:36.055Z,92.68
2023-09-06T00:49:10.923Z,93.29
2023-09-06T00:51:41.249Z,94.03
2023-09-06T00:54:13.032Z,93.67
2023-09-06T00:56:41.406Z,94.58
2023-09-06T00:59:15.476Z,93.78
2023-09-06T01:01:44.012Z,92.59
2023-09-06T01:04:13.932Z,92.91
2023-09-06T01:06:46.760Z,91.77
2023-09-06T01:09:21.107Z,92.66
2023-09-06T01:11:50.098Z,92.23
2023-09-06T01:14:22.882Z,92.39
2023-09-06T01:16:55.832Z,93.96
2023-09-06T01:19:34.679Z,94.74
2023-09-06T01:22:10.797Z,94.86
2023-09-06T01:24:42.022Z,94.38
2023-09-06T01:27:16.014Z,94.94
2023-09-06T01:29:45.334Z,95.90
2023-09-06T01:32:14.883Z,96.23
2023-09-06T01:34:43.923Z,95.36
2023-09-06T01:37:12.729Z,94.90
2023-09-06T01:39:42.307Z,94.76
2023-09-06T01:42:11.337Z,96.04
2023-09-06T01:44:43.604Z,96.17
2023-09-06T01:47:11.944Z,94.89
2023-09-06T01:49:40.453Z,93.97
2023-09-06T01:52:09.731Z,95.17
2023-09-06T01:54:39.126Z,96.24
2023-09-06T01:57:09.644Z,95.98
2023-09-06T01:59:41.567Z,96.71
2023-09-06T02:02:10.532Z,96.44
2023-09-06T02:04:42.282Z,96.51
2023-09-06T02:07:10.398Z,96.39
2023-09-06T02:09:41.071Z,96.14
2023-09-06T02:12:11.370Z,96.55
2023-09-06T02:14:39.334Z,96.49
2023-09-06T02:17:08.133Z,96.37
2023-09-06T02:19:36.734Z,97.02
2023-09-06T02:22:06.704Z,96.88
2023-09-06T02:24:35.348Z,96.26
2023-09-06T02:27:04.867Z,96.22
2023-09-06T02:29:36.724Z,96.24
2023-09-06T02:32:07.053Z,95.23
2023-09-06T02:34:36.905Z,95.58
2023-09-06T02:37:06.439Z,95.53
2023-09-06T02:39:39.946Z,94.76
2023-09-06T02:42:12.614Z,94.54
2023-09-06T02:44:43.450Z,94.58
2023-09-06T02:47:16.305Z,95.53
2023-09-06T02:49:44.937Z,95.06
2023-09-06T02:52:22.272Z,95.39
2023-09-06T02:54:54.422Z,94.94
2023-09-06T02:57:22.486Z,94.40
2023-09-06T02:59:53.204Z,94.59
2023-09-06T03:02:23.696Z,95.79
2023-09-06T03:04:56.377Z,95.16
2023-09-06T03:07:26.336Z,94.47
2023-09-06T03:09:54.736Z,92.52
2023-09-06T03:12:23.260Z,94.56
2023-09-06T03:14:56.903Z,94.98
2023-09-06T03:17:30.622Z,94.96
2023-09-06T03:20:01.133Z,95.11
2023-09-06T03:22:30.179Z,94.45
2023-09-06T03:24:58.433Z,95.38
2023-09-06T03:27:28.475Z,93.48
2023-09-06T03:29:59.399Z,95.04
2023-09-06T03:32:29.640Z,95.73
2023-09-06T03:34:59.050Z,94.95
2023-09-06T03:37:30.211Z,95.27
2023-09-06T03:39:58.227Z,95.40
2023-09-06T03:42:26.616Z,94.41
2023-09-06T03:44:54.858Z,94.50
2023-09-06T03:47:24.383Z,95.34
2023-09-06T03:49:53.578Z,95.36
2023-09-06T03:52:22.432Z,95.00
2023-09-06T03:54:52.114Z,96.46
2023-09-06T03:57:20.302Z,96.64
2023-09-06T03:59:48.473Z,95.98
2023-09-06T04:02:17.197Z,96.16
2023-09-06T04:04:47.140Z,97.28
2023-09-06T04:07:15.295Z,96.18
2023-09-06T04:09:43.954Z,95.43
2023-09-06T04:12:12.155Z,97.57
2023-09-06T04:14:45.233Z,97.44
2023-09-06T04:17:13.595Z,96.27
2023-09-06T04:19:42.192Z,96.91
2023-09-06T04:22:14.301Z,97.20
2023-09-06T04:24:44.210Z,96.21
2023-09-06T04:27:13.502Z,96.43
2023-09-06T04:29:43.524Z,95.87
2023-09-06T04:32:13.205Z,96.53
2023-09-06T04:34:41.413Z,96.07
2023-09-06T04:37:13.833Z,94.97
2023-09-06T04:39:45.226Z,95.96
2023-09-06T04:42:18.567Z,94.39
2023-09-06T04:44:46.544Z,94.16
2023-09-06T04:47:15.415Z,95.27
2023-09-06T04:49:47.085Z,94.37
2023-09-06T04:52:17.205Z,94.73
2023-09-06T04:54:49.254Z,95.09
2023-09-06T04:57:19.781Z,95.98
2023-09-06T04:59:49.896Z,95.36
2023-09-06T05:02:19.662Z,94.67
2023-09-06T05:04:49.961Z,94.18
2023-09-06T05:07:18.799Z,94.51
2023-09-06T05:09:58.488Z,93.36
2023-09-06T05:12:27.114Z,93.70
2023-09-06T05:14:55.864Z,93.94
2023-09-06T05:17:25.097Z,94.25
2023-09-06T05:19:54.807Z,94.25
2023-09-06T05:22:24.191Z,93.34
2023-09-06T05:25:08.313Z,93.67
2023-09-06T05:27:36.997Z,92.58
2023-09-06T05:30:06.548Z,92.13
2023-09-06T05:32:36.162Z,89.62
2023-09-06T05:35:06.790Z,89.88
2023-09-06T05:37:35.309Z,89.52
2023-09-06T05:40:09.654Z,89.67
2023-09-06T05:42:41.732Z,89.77
2023-09-06T05:45:14.712Z,88.54
2023-09-06T05:47:45.125Z,88.79
2023-09-06T05:50:18.864Z,88.54
2023-09-06T05:52:47.759Z,87.27
2023-09-06T05:55:18.503Z,88.04
2023-09-06T05:57:47.153Z,87.25
2023-09-06T06:00:17.555Z,86.93
2023-09-06T06:02:49.827Z,86.04
2023-09-06T06:05:22.818Z,85.68
2023-09-06T06:07:53.286Z,84.09
2023-09-06T06:10:24.767Z,82.10
2023-09-06T06:12:53.165Z,83.78
2023-09-06T06:15:21.838Z,82.76
2023-09-06T06:17:51.040Z,81.70
2023-09-06T07:36:29.571Z,64.56
2023-09-06T07:39:12.023Z,63.99
2023-09-06T07:48:57.894Z,63.81
2023-09-06T08:01:56.463Z,62.74
2023-09-06T08:14:49.229Z,60.98
2023-09-06T08:17:44.242Z,60.12
2023-09-06T08:26:49.486Z,58.09
2023-09-06T08:32:42.581Z,57.70
2023-09-06T08:52:02.250Z,51.69
2023-09-06T08:54:54.907Z,52.66
2023-09-06T09:24:53.374Z,49.15
2023-09-06T09:58:42.031Z,47.87
2023-09-06T10:04:29.887Z,47.42
2023-09-06T10:13:29.661Z,45.26
2023-09-06T10:25:28.581Z,44.91
2023-09-06T11:09:19.138Z,43.43
2023-09-06T11:51:07.797Z,42.04
2023-09-06T15:10:49.448Z,23.74
2023-09-06T16:38:18.908Z,37.34
2023-09-06T18:51:04.374Z,54.67
2023-09-06T18:53:47.804Z,54.67
2023-09-06T19:00:11.250Z,55.95
2023-09-06T19:03:04.706Z,57.46
2023-09-06T19:14:00.733Z,57.58
2023-09-06T19:16:33.329Z,58.27
2023-09-06T19:19:04.147Z,59.48
2023-09-06T19:21:33.806Z,59.88
2023-09-06T19:24:30.664Z,60.11
2023-09-06T19:27:23.875Z,60.49
2023-09-06T19:29:53.046Z,60.88
2023-09-06T19:32:26.909Z,61.25
2023-09-06T19:34:55.221Z,62.03
2023-09-06T19:37:27.497Z,62.53
2023-09-06T19:40:02.546Z,62.92
2023-09-06T19:42:53.165Z,63.18
2023-09-06T19:45:24.593Z,63.71
2023-09-06T19:47:56.137Z,64.12
2023-09-06T19:50:45.892Z,63.98
2023-09-06T19:53:19.604Z,64.77
2023-09-06T19:56:14.685Z,64.78
2023-09-06T19:58:48.213Z,65.14
2023-09-06T20:01:24.929Z,64.98
2023-09-06T20:03:54.937Z,65.52
2023-09-06T20:06:23.590Z,65.82
2023-09-06T20:08:53.533Z,66.24
2023-09-06T20:11:25.180Z,67.98
2023-09-06T20:13:53.665Z,68.88
2023-09-06T20:16:28.608Z,69.36
2023-09-06T20:19:01.079Z,68.96
2023-09-06T20:21:31.808Z,66.03
2023-09-06T20:24:02.399Z,64.30
2023-09-06T20:26:30.388Z,63.95
2023-09-06T20:29:10.316Z,64.65
2023-09-06T20:31:42.262Z,65.64
2023-09-06T20:34:14.322Z,66.62
2023-09-06T20:36:42.801Z,64.11
2023-09-06T20:39:16.032Z,66.30
2023-09-06T20:41:45.013Z,67.96
2023-09-06T20:44:13.709Z,66.32
2023-09-06T20:46:44.584Z,66.06
2023-09-06T20:49:35.592Z,63.23
2023-09-06T20:52:11.257Z,63.12
2023-09-06T20:54:40.256Z,63.50
2023-09-06T20:57:13.830Z,64.32
2023-09-06T20:59:44.682Z,64.89
2023-09-06T21:02:14.940Z,66.27
2023-09-06T21:04:44.510Z,67.16
2023-09-06T21:07:13.314Z,68.71
2023-09-06T21:09:45.510Z,68.56
2023-09-06T21:12:14.093Z,69.10
2023-09-06T21:15:03.033Z,70.07
2023-09-06T21:17:31.587Z,70.73
2023-09-06T21:20:04.469Z,71.18
2023-09-06T21:22:34.839Z,71.65
2023-09-06T21:25:03.547Z,73.01
2023-09-06T21:27:31.531Z,72.00
2023-09-06T21:30:01.539Z,70.50
2023-09-06T21:32:29.601Z,69.36
2023-09-06T21:34:58.928Z,70.11
2023-09-06T21:37:34.133Z,68.59
2023-09-06T21:40:06.836Z,69.78
2023-09-06T21:42:36.431Z,70.50
2023-09-06T21:45:09.027Z,70.19
2023-09-06T21:47:39.551Z,70.89
2023-09-06T21:50:09.703Z,72.10
2023-09-06T21:52:42.159Z,72.07
2023-09-06T21:55:18.898Z,72.38
2023-09-06T21:58:02.718Z,72.80
2023-09-06T22:00:38.550Z,73.10
2023-09-06T22:03:08.577Z,74.04
2023-09-06T22:05:39.851Z,73.96
2023-09-06T22:08:12.323Z,74.43
2023-09-06T22:10:45.559Z,74.60
2023-09-06T22:13:14.873Z,74.15
2023-09-06T22:15:50.965Z,74.56
2023-09-06T22:18:23.365Z,74.64
2023-09-06T22:20:52.606Z,75.33
2023-09-06T22:23:24.052Z,77.97
2023-09-06T22:26:02.721Z,79.18
2023-09-06T22:28:33.203Z,77.91
2023-09-06T22:31:04.151Z,79.64
2023-09-06T22:33:33.902Z,79.43
2023-09-06T22:36:03.020Z,79.00
2023-09-06T22:38:33.337Z,79.36
2023-09-06T22:41:03.145Z,78.25
2023-09-06T22:43:33.663Z,78.61
2023-09-06T22:46:04.957Z,78.73
2023-09-06T22:51:13.798Z,81.60
2023-09-06T22:53:44.638Z,81.63
2023-09-06T22:56:14.695Z,81.15
2023-09-06T22:58:43.369Z,80.16
2023-09-06T23:01:12.545Z,81.28
2023-09-06T23:03:46.002Z,81.15
2023-09-06T23:06:18.080Z,82.09
2023-09-06T23:08:48.850Z,82.25
2023-09-06T23:11:17.835Z,82.43
2023-09-06T23:13:46.102Z,82.76
2023-09-06T23:16:20.924Z,82.95
2023-09-06T23:18:50.447Z,83.78
2023-09-06T23:21:23.240Z,83.37
2023-09-06T23:24:09.434Z,83.62
2023-09-06T23:26:40.058Z,83.83
2023-09-06T23:29:11.716Z,83.67
2023-09-06T23:34:31.821Z,84.58
2023-09-06T23:37:06.930Z,85.17
2023-09-06T23:39:43.978Z,85.14
2023-09-06T23:42:14.292Z,85.33
2023-09-06T23:44:43.531Z,85.30
2023-09-06T23:47:15.768Z,85.56
2023-09-06T23:49:49.145Z,85.98
2023-09-06T23:52:20.881Z,85.89
2023-09-06T23:54:52.946Z,85.76
2023-09-06T23:57:22.357Z,85.57
2023-09-06T23:59:53.478Z,85.55
